createdAt,value
2018-06-12T00:02:12.861Z,15.60
2018-06-12T00:07:08.088Z,15.60
2018-06-12T00:09:35.730Z,15.60
2018-06-12T00:14:30.927Z,15.90
2018-06-12T00:16:58.508Z,15.70
2018-06-12T00:19:26.120Z,15.80
2018-06-12T00:21:53.697Z,15.60
2018-06-12T00:24:21.352Z,15.50
2018-06-12T00:26:48.973Z,15.50
2018-06-12T00:29:16.599Z,15.40
2018-06-12T00:31:44.197Z,15.40
2018-06-12T00:34:11.887Z,15.40
2018-06-12T00:36:39.450Z,15.20
2018-06-12T00:39:07.671Z,15.00
2018-06-12T00:41:35.340Z,15.00
2018-06-12T00:44:03.004Z,15.10
2018-06-12T00:46:30.902Z,15.10
2018-06-12T00:48:58.496Z,15.10
2018-06-12T00:51:26.051Z,15.20
2018-06-12T00:53:53.705Z,15.50
2018-06-12T00:56:32.782Z,15.60
2018-06-12T00:59:00.375Z,15.60
2018-06-12T01:01:27.960Z,15.10
2018-06-12T01:03:55.529Z,15.10
2018-06-12T01:06:23.094Z,15.30
2018-06-12T01:08:51.020Z,15.20
2018-06-12T01:11:18.589Z,15.10
2018-06-12T01:13:46.197Z,15.10
2018-06-12T01:16:13.799Z,15.30
2018-06-12T01:18:41.826Z,15.30
2018-06-12T01:21:09.866Z,15.30
2018-06-12T01:23:37.858Z,15.10
2018-06-12T01:26:05.774Z,15.20
2018-06-12T01:31:01.655Z,15.20
2018-06-12T01:33:29.703Z,15.30
2018-06-12T01:35:57.843Z,15.20
2018-06-12T01:45:49.625Z,15.40
2018-06-12T01:50:45.391Z,15.30
2018-06-12T01:55:41.453Z,15.10
2018-06-12T02:00:37.348Z,15.00
2018-06-12T02:03:05.231Z,15.10
2018-06-12T02:05:33.343Z,15.20
2018-06-12T02:08:01.350Z,15.20
2018-06-12T02:12:57.216Z,15.40
2018-06-12T02:15:25.228Z,15.40
2018-06-12T02:17:53.240Z,15.50
2018-06-12T02:20:21.385Z,15.40
2018-06-12T02:22:49.397Z,15.20
2018-06-12T02:25:17.542Z,15.30
2018-06-12T02:27:45.516Z,15.40
2018-06-12T02:30:13.549Z,15.30
2018-06-12T02:32:41.575Z,15.30
2018-06-12T02:35:09.687Z,15.30
2018-06-12T02:37:37.736Z,15.40
2018-06-12T02:40:05.706Z,15.40
2018-06-12T02:42:33.907Z,15.50
2018-06-12T02:45:01.942Z,15.50
2018-06-12T02:47:29.944Z,15.40
2018-06-12T02:52:26.060Z,15.30
2018-06-12T02:59:49.670Z,14.90
2018-06-12T03:02:17.794Z,15.00
2018-06-12T03:04:45.787Z,14.90
2018-06-12T03:07:13.869Z,14.90
2018-06-12T03:09:41.830Z,14.80
2018-06-12T03:12:09.840Z,14.60
2018-06-12T03:14:37.871Z,14.60
2018-06-12T03:17:05.972Z,14.60
2018-06-12T03:19:33.897Z,14.50
2018-06-12T03:22:02.001Z,14.50
2018-06-12T03:24:29.913Z,14.40
2018-06-12T03:26:58.016Z,14.40
2018-06-12T03:29:25.936Z,14.40
2018-06-12T03:31:53.842Z,14.50
2018-06-12T03:34:21.847Z,14.40
2018-06-12T03:36:49.891Z,14.40
2018-06-12T03:39:17.839Z,14.50
2018-06-12T03:41:45.812Z,14.50
2018-06-12T03:44:13.685Z,14.60
2018-06-12T03:46:41.614Z,14.50
2018-06-12T03:49:09.571Z,14.50
2018-06-12T03:54:05.289Z,14.70
2018-06-12T03:59:01.170Z,14.70
2018-06-12T04:01:29.171Z,14.70
2018-06-12T04:03:57.122Z,14.90
2018-06-12T04:06:25.125Z,14.90
2018-06-12T04:08:53.131Z,14.90
2018-06-12T04:11:21.146Z,14.80
2018-06-12T04:13:49.062Z,14.90
2018-06-12T04:16:17.342Z,14.70
2018-06-12T04:18:45.292Z,14.90
2018-06-12T04:23:41.378Z,14.80
2018-06-12T04:26:10.132Z,14.80
2018-06-12T04:28:38.172Z,14.90
2018-06-12T04:31:06.142Z,14.80
2018-06-12T04:36:02.039Z,14.90
2018-06-12T04:38:29.937Z,14.90
2018-06-12T04:43:25.853Z,14.80
2018-06-12T04:45:53.762Z,14.80
2018-06-12T04:48:21.964Z,14.90
2018-06-12T04:50:49.971Z,15.00
2018-06-12T04:53:18.060Z,15.00
2018-06-12T04:55:46.090Z,14.90
2018-06-12T04:58:14.192Z,15.00
2018-06-12T05:00:42.196Z,14.90
2018-06-12T05:03:10.237Z,14.60
2018-06-12T05:05:38.275Z,14.70
2018-06-12T05:08:06.643Z,14.90
2018-06-12T05:10:34.666Z,15.10
2018-06-12T05:13:03.700Z,14.90
2018-06-12T05:15:31.746Z,15.00
2018-06-12T05:20:27.926Z,14.90
2018-06-12T05:22:55.887Z,15.10
2018-06-12T05:25:23.971Z,15.20
2018-06-12T05:32:47.862Z,15.20
2018-06-12T05:35:15.805Z,14.90
2018-06-12T05:37:43.858Z,15.00
2018-06-12T05:42:41.840Z,15.00
2018-06-12T05:45:09.962Z,14.90
2018-06-12T05:47:37.951Z,15.00
2018-06-12T05:50:05.872Z,15.00
2018-06-12T05:52:34.026Z,15.10
2018-06-12T05:55:02.037Z,15.00
2018-06-12T05:57:30.142Z,15.10
2018-06-12T05:59:58.190Z,15.00
2018-06-12T06:02:26.146Z,15.20
2018-06-12T06:04:54.113Z,15.10
2018-06-12T06:07:21.977Z,15.30
2018-06-12T06:09:49.942Z,15.10
2018-06-12T06:14:45.690Z,15.20
2018-06-12T06:17:13.873Z,15.30
2018-06-12T06:22:09.695Z,15.40
2018-06-12T06:24:37.679Z,15.40
2018-06-12T06:27:05.697Z,15.30
2018-06-12T06:29:33.728Z,15.30
2018-06-12T06:32:02.061Z,15.40
2018-06-12T06:34:30.187Z,15.50
2018-06-12T06:39:26.058Z,15.40
2018-06-12T06:41:53.972Z,15.50
2018-06-12T06:44:21.895Z,15.50
2018-06-12T06:46:49.829Z,15.50
2018-06-12T06:49:18.088Z,15.20
2018-06-12T06:51:46.016Z,15.40
2018-06-12T06:56:41.768Z,15.30
2018-06-12T06:59:09.737Z,15.40
2018-06-12T07:01:37.644Z,15.40
2018-06-12T07:04:05.572Z,15.40
2018-06-12T07:06:33.535Z,15.50
2018-06-12T07:09:01.570Z,15.60
2018-06-12T07:13:57.407Z,15.50
2018-06-12T07:16:25.456Z,15.50
2018-06-12T07:18:53.467Z,15.40
2018-06-12T07:21:23.213Z,15.40
2018-06-12T07:23:51.188Z,15.40
2018-06-12T07:26:19.281Z,15.40
2018-06-12T07:28:47.308Z,15.30
2018-06-12T07:31:15.345Z,15.50
2018-06-12T07:33:43.239Z,15.60
2018-06-12T07:36:11.621Z,15.70
2018-06-12T07:38:39.740Z,15.60
2018-06-12T07:41:07.664Z,15.70
2018-06-12T07:43:35.780Z,15.50
2018-06-12T07:48:31.933Z,15.50
2018-06-12T07:50:59.949Z,15.60
2018-06-12T07:53:28.002Z,15.60
2018-06-12T07:55:55.979Z,15.90
2018-06-12T07:58:23.938Z,15.80
2018-06-12T08:00:51.856Z,15.80
2018-06-12T08:03:19.797Z,15.70
2018-06-12T08:05:47.748Z,15.90
2018-06-12T08:08:15.872Z,15.90
2018-06-12T08:15:39.524Z,15.90
2018-06-12T08:18:07.523Z,15.80
2018-06-12T08:20:35.473Z,15.70
2018-06-12T08:23:03.369Z,15.80
2018-06-12T08:30:27.324Z,15.70
2018-06-12T08:32:55.153Z,15.60
2018-06-12T08:35:23.211Z,15.50
2018-06-12T08:37:51.151Z,15.60
2018-06-12T08:40:19.138Z,15.80
2018-06-12T08:42:47.124Z,15.80
2018-06-12T08:45:15.032Z,15.70
2018-06-12T08:47:43.104Z,15.60
2018-06-12T08:50:11.007Z,15.90
2018-06-12T08:55:06.906Z,16.10
2018-06-12T08:57:34.961Z,16.00
2018-06-12T09:00:03.256Z,16.00
2018-06-12T09:04:59.107Z,16.00
2018-06-12T09:07:27.045Z,15.80
2018-06-12T09:09:55.310Z,15.70
2018-06-12T09:12:23.239Z,15.80
2018-06-12T09:19:47.072Z,15.90
2018-06-12T09:22:15.008Z,15.80
2018-06-12T09:24:42.945Z,16.10
2018-06-12T09:27:10.903Z,16.20
2018-06-12T09:29:38.808Z,16.50
2018-06-12T09:32:06.761Z,16.40
2018-06-12T09:34:34.680Z,16.30
2018-06-12T09:41:58.464Z,16.70
2018-06-12T09:44:26.385Z,16.80
2018-06-12T09:46:54.284Z,16.60
2018-06-12T09:49:22.336Z,16.90
2018-06-12T09:51:50.244Z,16.80
2018-06-12T09:54:18.231Z,16.60
2018-06-12T09:56:46.490Z,16.50
2018-06-12T10:01:42.230Z,16.90
2018-06-12T10:06:37.984Z,16.80
2018-06-12T10:09:06.985Z,16.90
2018-06-12T10:11:34.909Z,16.80
2018-06-12T10:14:02.953Z,16.80
2018-06-12T10:16:30.917Z,17.20
2018-06-12T10:18:58.872Z,17.10
2018-06-12T10:21:26.805Z,17.20
2018-06-12T10:23:54.788Z,17.10
2018-06-12T10:26:22.716Z,17.00
2018-06-12T10:31:18.571Z,17.00
2018-06-12T10:33:46.550Z,17.10
2018-06-12T10:36:14.753Z,17.50
2018-06-12T10:38:43.147Z,17.50
2018-06-12T10:41:11.185Z,17.60
2018-06-12T10:43:39.162Z,17.50
2018-06-12T10:46:07.144Z,17.70
2018-06-12T10:48:35.049Z,17.60
2018-06-12T10:53:30.816Z,17.60
2018-06-12T10:55:58.827Z,17.40
2018-06-12T10:58:26.885Z,17.60
2018-06-12T11:00:55.002Z,17.90
2018-06-12T11:03:23.003Z,17.80
2018-06-12T11:05:51.091Z,18.00
2018-06-12T11:08:19.165Z,17.80
2018-06-12T11:10:47.076Z,17.90
2018-06-12T11:15:42.794Z,18.00
2018-06-12T11:20:38.800Z,18.00
2018-06-12T11:23:06.707Z,18.00
2018-06-12T11:25:34.673Z,17.70
2018-06-12T11:28:02.677Z,17.80
2018-06-12T11:30:30.609Z,17.80
2018-06-12T11:32:58.650Z,17.80
2018-06-12T11:35:26.692Z,17.60
2018-06-12T11:37:54.650Z,17.50
2018-06-12T11:40:22.590Z,17.50
2018-06-12T11:45:18.439Z,17.90
2018-06-12T11:47:46.448Z,17.90
2018-06-12T11:50:14.306Z,17.80
2018-06-12T11:52:42.337Z,17.70
2018-06-12T11:57:38.104Z,17.70
2018-06-12T12:00:06.122Z,17.60
2018-06-12T12:02:33.724Z,17.60
2018-06-12T12:05:01.275Z,17.50
2018-06-12T12:07:28.879Z,17.50
2018-06-12T12:12:24.080Z,17.80
2018-06-12T12:14:51.694Z,18.10
2018-06-12T12:17:19.335Z,18.20
2018-06-12T12:19:46.894Z,18.40
2018-06-12T12:22:14.458Z,18.10
2018-06-12T12:24:42.057Z,18.10
2018-06-12T12:27:09.640Z,18.10
2018-06-12T12:29:37.170Z,17.80
2018-06-12T12:32:04.756Z,18.10
2018-06-12T12:34:32.322Z,18.00
2018-06-12T12:36:59.899Z,17.90
2018-06-12T12:39:27.478Z,18.00
2018-06-12T12:41:55.056Z,18.00
2018-06-12T12:44:22.664Z,18.10
2018-06-12T12:46:50.294Z,18.10
2018-06-12T12:49:17.937Z,18.10
2018-06-12T12:51:45.616Z,18.20
2018-06-12T12:54:13.202Z,18.30
2018-06-12T12:56:40.938Z,18.20
2018-06-12T12:59:08.546Z,18.10
2018-06-12T13:01:36.221Z,18.10
2018-06-12T13:04:03.962Z,18.50
2018-06-12T13:06:31.583Z,18.60
2018-06-12T13:08:59.245Z,18.70
2018-06-12T13:11:26.849Z,18.50
2018-06-12T13:13:54.466Z,18.60
2018-06-12T13:16:22.018Z,18.50
2018-06-12T13:18:49.786Z,18.50
2018-06-12T13:21:17.338Z,18.10
2018-06-12T13:23:44.892Z,18.20
2018-06-12T13:26:12.461Z,18.10
2018-06-12T13:28:40.124Z,18.30
2018-06-12T13:31:07.734Z,18.30
2018-06-12T13:33:35.365Z,18.30
2018-06-12T13:36:02.925Z,18.30
2018-06-12T13:38:30.637Z,18.10
2018-06-12T13:40:58.223Z,17.90
2018-06-12T13:43:25.828Z,18.00
2018-06-12T13:48:21.099Z,18.00
2018-06-12T13:50:48.646Z,18.00
2018-06-12T13:53:16.228Z,18.00
2018-06-12T13:55:43.778Z,18.00
2018-06-12T13:58:11.546Z,18.40
2018-06-12T14:00:39.142Z,18.30
2018-06-12T14:03:06.710Z,18.30
2018-06-12T14:05:34.325Z,18.40
2018-06-12T14:08:01.881Z,18.30
2018-06-12T14:10:29.460Z,18.50
2018-06-12T14:12:57.039Z,18.50
2018-06-12T14:20:19.817Z,18.60
2018-06-12T14:22:47.380Z,18.70
2018-06-12T14:25:15.001Z,18.70
2018-06-12T14:27:42.629Z,18.70
2018-06-12T14:30:10.220Z,18.30
2018-06-12T14:32:37.771Z,18.40
2018-06-12T14:35:05.440Z,18.50
2018-06-12T14:37:33.032Z,18.60
2018-06-12T14:40:00.659Z,18.60
2018-06-12T14:42:28.205Z,18.30
2018-06-12T14:44:55.879Z,18.50
2018-06-12T14:47:23.546Z,18.40
2018-06-12T14:49:51.124Z,18.40
2018-06-12T14:52:18.759Z,18.30
2018-06-12T14:54:46.430Z,18.20
2018-06-12T14:57:14.082Z,18.30
2018-06-12T14:59:41.678Z,18.30
2018-06-12T15:02:09.303Z,18.40
2018-06-12T15:04:36.963Z,18.50
2018-06-12T15:07:04.547Z,18.30
2018-06-12T15:09:32.146Z,18.40
2018-06-12T15:11:59.738Z,18.30
2018-06-12T15:14:27.381Z,18.20
2018-06-12T15:16:54.963Z,18.30
2018-06-12T15:19:22.540Z,18.50
2018-06-12T15:21:50.225Z,18.70
2018-06-12T15:24:17.915Z,18.70
2018-06-12T15:26:45.489Z,18.40
2018-06-12T15:29:13.097Z,18.40
2018-06-12T15:34:08.559Z,18.30
2018-06-12T15:36:36.356Z,18.30
2018-06-12T15:39:06.642Z,18.20
2018-06-12T15:41:34.250Z,18.40
2018-06-12T15:44:01.831Z,18.20
2018-06-12T15:46:29.528Z,17.90
2018-06-12T15:48:57.068Z,17.80
2018-06-12T15:51:24.675Z,17.90
2018-06-12T15:53:52.238Z,17.80
2018-06-12T15:56:19.911Z,17.60
2018-06-12T15:58:47.456Z,17.60
2018-06-12T16:01:15.218Z,17.70
2018-06-12T16:03:42.842Z,17.70
2018-06-12T16:06:10.525Z,17.90
2018-06-12T16:08:38.132Z,18.00
2018-06-12T16:13:33.242Z,18.00
2018-06-12T16:16:00.833Z,18.10
2018-06-12T16:18:28.497Z,18.10
2018-06-12T16:20:56.073Z,18.10
2018-06-12T16:23:23.685Z,18.30
2018-06-12T16:28:18.841Z,18.50
2018-06-12T16:30:46.538Z,18.30
2018-06-12T16:33:14.133Z,18.50
2018-06-12T16:38:09.217Z,18.40
2018-06-12T16:40:36.808Z,18.00
2018-06-12T16:47:59.903Z,18.10
2018-06-12T16:50:27.619Z,17.90
2018-06-12T16:52:55.248Z,17.90
2018-06-12T16:55:22.861Z,17.70
2018-06-12T16:57:50.573Z,17.70
2018-06-12T17:00:18.173Z,17.70
2018-06-12T17:02:45.818Z,17.70
2018-06-12T17:05:13.445Z,17.40
2018-06-12T17:07:41.021Z,17.40
2018-06-12T17:10:08.611Z,17.60
2018-06-12T17:12:36.258Z,17.60
2018-06-12T17:15:04.074Z,17.60
2018-06-12T17:17:31.777Z,17.40
2018-06-12T17:19:59.346Z,17.50
2018-06-12T17:22:26.950Z,17.30
2018-06-12T17:24:54.664Z,17.50
2018-06-12T17:27:22.296Z,17.50
2018-06-12T17:29:49.884Z,17.60
2018-06-12T17:32:17.521Z,17.40
2018-06-12T17:34:45.101Z,17.50
2018-06-12T17:37:12.757Z,17.50
2018-06-12T17:39:40.333Z,17.60
2018-06-12T17:42:07.982Z,17.40
2018-06-12T17:44:35.632Z,17.40
2018-06-12T17:47:03.363Z,17.20
2018-06-12T17:49:30.926Z,17.10
2018-06-12T17:51:58.511Z,17.20
2018-06-12T17:54:26.170Z,17.20
2018-06-12T17:56:53.859Z,17.40
2018-06-12T17:59:21.808Z,17.10
2018-06-12T18:01:49.459Z,17.10
2018-06-12T18:04:17.143Z,17.10
2018-06-12T18:06:44.939Z,17.00
2018-06-12T18:09:12.509Z,17.10
2018-06-12T18:14:07.691Z,17.00
2018-06-12T18:16:35.337Z,17.00
2018-06-12T18:19:02.931Z,17.10
2018-06-12T18:21:30.486Z,17.00
2018-06-12T18:23:58.129Z,17.00
2018-06-12T18:26:26.660Z,17.00
2018-06-12T18:28:54.272Z,17.00
2018-06-12T18:31:21.835Z,17.10
2018-06-12T18:33:49.414Z,17.00
2018-06-12T18:36:17.314Z,17.00
2018-06-12T18:38:44.914Z,17.10
2018-06-12T18:41:12.568Z,17.30
2018-06-12T18:43:40.239Z,17.10
2018-06-12T18:46:07.845Z,17.10
2018-06-12T18:48:35.492Z,16.90
2018-06-12T18:51:03.081Z,16.90
2018-06-12T18:53:30.655Z,16.80
2018-06-12T18:55:58.235Z,16.80
2018-06-12T18:58:25.821Z,16.90
2018-06-12T19:00:53.377Z,16.90
2018-06-12T19:03:21.015Z,16.90
2018-06-12T19:05:48.847Z,16.80
2018-06-12T19:08:16.480Z,16.80
2018-06-12T19:10:44.051Z,16.60
2018-06-12T19:13:11.658Z,16.80
2018-06-12T19:15:39.229Z,16.90
2018-06-12T19:18:06.832Z,16.90
2018-06-12T19:20:34.426Z,16.80
2018-06-12T19:23:02.141Z,16.80
2018-06-12T19:25:29.765Z,16.90
2018-06-12T19:27:57.433Z,16.70
2018-06-12T19:30:25.047Z,16.80
2018-06-12T19:32:52.693Z,16.80
2018-06-12T19:35:20.364Z,16.70
2018-06-12T19:37:47.995Z,16.60
2018-06-12T19:40:15.936Z,16.70
2018-06-12T19:42:43.700Z,16.60
2018-06-12T19:45:11.280Z,16.60
2018-06-12T19:47:38.921Z,16.70
2018-06-12T19:50:06.506Z,16.70
2018-06-12T19:52:34.243Z,16.60
2018-06-12T19:55:01.879Z,16.60
2018-06-12T19:57:29.497Z,16.70
2018-06-12T19:59:57.314Z,16.70
2018-06-12T20:02:24.876Z,16.70
2018-06-12T20:04:52.523Z,16.60
2018-06-12T20:07:20.210Z,16.60
2018-06-12T20:09:47.822Z,16.50
2018-06-12T20:12:15.438Z,16.60
2018-06-12T20:14:43.094Z,16.50
2018-06-12T20:17:10.660Z,16.50
2018-06-12T20:19:38.287Z,16.40
2018-06-12T20:22:05.892Z,16.30
2018-06-12T20:27:01.092Z,16.40
2018-06-12T20:29:28.693Z,16.30
2018-06-12T20:31:56.308Z,16.30
2018-06-12T20:34:24.069Z,16.40
2018-06-12T20:36:51.661Z,16.40
2018-06-12T20:41:46.858Z,16.10
2018-06-12T20:46:42.167Z,16.00
2018-06-12T20:49:09.718Z,16.00
2018-06-12T20:54:04.976Z,15.80
2018-06-12T20:56:32.604Z,16.00
2018-06-12T20:59:00.220Z,16.00
2018-06-12T21:01:27.825Z,16.00
2018-06-12T21:06:23.315Z,16.10
2018-06-12T21:08:50.853Z,16.00
2018-06-12T21:11:18.456Z,16.00
2018-06-12T21:13:46.018Z,16.10
2018-06-12T21:16:13.592Z,16.10
2018-06-12T21:18:41.229Z,16.10
2018-06-12T21:21:08.807Z,16.20
2018-06-12T21:23:36.351Z,16.10
2018-06-12T21:26:03.975Z,16.20
2018-06-12T21:28:31.580Z,16.30
2018-06-12T21:30:59.152Z,16.30
2018-06-12T21:33:26.817Z,16.20
2018-06-12T21:35:54.415Z,16.20
2018-06-12T21:38:21.973Z,16.00
2018-06-12T21:40:55.509Z,16.00
2018-06-12T21:43:23.122Z,16.10
2018-06-12T21:45:50.769Z,16.10
2018-06-12T21:48:18.348Z,15.90
2018-06-12T21:50:45.915Z,15.90
2018-06-12T21:53:13.513Z,16.00
2018-06-12T21:55:41.161Z,16.00
2018-06-12T21:58:08.798Z,15.90
2018-06-12T22:00:36.561Z,15.90
2018-06-12T22:03:04.086Z,15.90
2018-06-12T22:07:59.398Z,15.80
2018-06-12T22:10:26.960Z,15.50
2018-06-12T22:12:54.718Z,15.50
2018-06-12T22:15:22.307Z,15.50
2018-06-12T22:17:51.663Z,15.50
2018-06-12T22:20:19.222Z,15.40
2018-06-12T22:22:46.817Z,15.30
2018-06-12T22:25:14.418Z,15.40
2018-06-12T22:27:48.899Z,15.10
2018-06-12T22:30:16.460Z,15.20
2018-06-12T22:35:11.603Z,14.90
2018-06-12T22:37:39.217Z,14.80
2018-06-12T22:40:07.142Z,14.80
2018-06-12T22:42:34.744Z,15.00
2018-06-12T22:45:02.379Z,15.00
2018-06-12T22:47:29.969Z,14.90
2018-06-12T22:49:57.627Z,15.00
2018-06-12T22:52:25.200Z,14.90
2018-06-12T22:57:20.501Z,14.90
2018-06-12T22:59:48.169Z,15.00
2018-06-12T23:02:15.737Z,15.10
2018-06-12T23:04:43.388Z,15.00
2018-06-12T23:09:38.540Z,15.30
2018-06-12T23:17:01.385Z,15.20
2018-06-12T23:19:29.011Z,15.40
2018-06-12T23:21:57.665Z,15.50
2018-06-12T23:24:25.524Z,15.60
2018-06-12T23:26:53.280Z,15.50
2018-06-12T23:29:20.871Z,15.40
2018-06-12T23:31:48.576Z,15.40
2018-06-12T23:34:16.181Z,15.40
2018-06-12T23:36:43.917Z,15.40
2018-06-12T23:39:11.475Z,15.30
2018-06-12T23:41:39.137Z,15.20
2018-06-12T23:44:06.839Z,15.10
2018-06-12T23:46:34.432Z,15.00
2018-06-12T23:49:02.010Z,14.90
2018-06-12T23:51:29.668Z,14.90
2018-06-12T23:53:57.305Z,14.70
2018-06-12T23:56:24.888Z,14.60
2018-06-12T23:58:52.564Z,14.50
